Bookmark and Share
Track history (hours):
 

Eagle Boston

Last reported at 2014-Apr-13 11:33 UTC. Time now 2014-Apr-16 16:08 UTC.
Position N 50°14' W 001°39'.

Length 254 m; draft 8.6 m.

Type: Tanker. MMSI: 564004000.

NotesDate/timePositionNaut miles runAvg speedWind from/ knotsBaromVisibWave heightAir tempDewpointWater temp
2014-Apr-13 11:33N 50°14' W 001°39'1413.8
2014-Apr-13 10:33N 50°17' W 001°18'1212.1
2014-Apr-13 09:33N 50°20' W 000°60'1010.3
2014-Apr-13 08:33N 50°23' W 000°44'12 9.5
2014-Apr-13 07:16N 50°26' W 000°26'7 9.8
2014-Apr-13 06:33N 50°28' W 000°15'1511.5
2014-Apr-13 05:16N 50°32' E 000°07'912.4
2014-Apr-13 04:33N 50°34' E 000°21'1313.3
2014-Apr-13 03:33N 50°39' E 000°40'1413.5
2014-Apr-13 02:33N 50°46' E 000°58'2412.0
2014-Apr-13 00:33N 51°02' E 001°27'10 9.6
2014-Apr-12 23:33N 51°08' E 001°39'1010.1
2014-Apr-12 22:34N 51°16' E 001°49'1111.2
2014-Apr-12 21:33N 51°26' E 001°58'1313.2
2014-Apr-12 20:33N 51°36' E 002°12'1414.1
2014-Apr-12 19:33N 51°46' E 002°27'2712.2
2014-Apr-12 17:19N 52°02' E 003°03'911.8
2014-Apr-12 16:33N 52°03' E 003°18'1111.5
2014-Apr-12 15:33N 52°03' E 003°37'1111.0
2014-Apr-12 14:33N 52°03' E 003°54'10 9.9
2014-Apr-12 13:33N 51°58' E 004°08'7 7.2
2014-Apr-12 12:32N 51°54' E 004°18'1 0.7
2014-Apr-12 11:31N 51°53' E 004°17'0 0.0
2014-Apr-12 10:29N 51°53' E 004°17'0 0.0
2014-Apr-12 09:26N 51°53' E 004°17'0 0.0
2014-Apr-12 08:32N 51°53' E 004°17'0 0.0
2014-Apr-12 07:17N 51°53' E 004°17'0 0.0
2014-Apr-12 06:31N 51°53' E 004°17'0 0.0
2014-Apr-12 05:31N 51°53' E 004°17'0 0.0
2014-Apr-12 04:31N 51°53' E 004°17'0 0.0
2014-Apr-12 03:31N 51°53' E 004°17'0 0.0
2014-Apr-12 02:31N 51°53' E 004°17'0 0.0
2014-Apr-12 01:28N 51°53' E 004°17'0 0.0
2014-Apr-12 00:31N 51°53' E 004°17'0 0.0
2014-Apr-11 23:31N 51°53' E 004°17'0 0.0
2014-Apr-11 22:31N 51°53' E 004°17'0 0.0
2014-Apr-11 21:31N 51°53' E 004°17'0 0.0
2014-Apr-11 20:31N 51°53' E 004°17'0 0.0
2014-Apr-11 19:31N 51°53' E 004°17'0 0.0
2014-Apr-11 18:13N 51°53' E 004°17'0 0.0
2014-Apr-11 17:31N 51°53' E 004°17'0 0.0
2014-Apr-11 16:31N 51°53' E 004°17'0 0.0
2014-Apr-11 15:31N 51°53' E 004°17'0 0.0
2014-Apr-11 14:31N 51°53' E 004°17'0 0.0
2014-Apr-11 13:31N 51°53' E 004°17'0 0.0
2014-Apr-11 12:31N 51°53' E 004°17'0 0.0
2014-Apr-11 11:31N 51°53' E 004°17'0 0.0
2014-Apr-11 10:28N 51°53' E 004°17'0 0.0
2014-Apr-11 09:31N 51°53' E 004°17'0 0.0
2014-Apr-11 08:31N 51°53' E 004°17'0 0.0
2014-Apr-11 07:31N 51°53' E 004°17'0 0.0
2014-Apr-11 06:28N 51°53' E 004°17'0 0.0
2014-Apr-11 05:25N 51°53' E 004°17'0 0.0
2014-Apr-11 04:25N 51°53' E 004°17'0 0.0
2014-Apr-11 03:31N 51°53' E 004°17'0 0.0
2014-Apr-11 02:31N 51°53' E 004°17'0 0.0
2014-Apr-11 01:31N 51°53' E 004°17'0 0.0
2014-Apr-11 00:31N 51°53' E 004°17'0 0.0
2014-Apr-10 23:28N 51°53' E 004°17'0 0.0
2014-Apr-10 22:31N 51°53' E 004°17'0 0.0
2014-Apr-10 21:31N 51°53' E 004°17'0 0.0
2014-Apr-10 20:31N 51°53' E 004°17'0 0.0
2014-Apr-10 19:22N 51°53' E 004°17'0 0.0
2014-Apr-10 18:28N 51°53' E 004°17'0 0.0
2014-Apr-10 17:16N 51°53' E 004°17'0 0.0
2014-Apr-10 15:25N 51°53' E 004°17'0 0.0
2014-Apr-10 14:31N 51°53' E 004°17'0 0.0
2014-Apr-10 13:31N 51°53' E 004°17'0 0.0
2014-Apr-10 12:16N 51°53' E 004°17'0 0.0
2014-Apr-10 11:28N 51°53' E 004°17'0 0.0
2014-Apr-10 10:13N 51°53' E 004°17'0 0.0
2014-Apr-10 09:19N 51°53' E 004°17'0 0.0
2014-Apr-10 08:31N 51°53' E 004°17'0 0.0
2014-Apr-10 07:31N 51°53' E 004°17'0 0.0
2014-Apr-10 06:31N 51°53' E 004°17'0 0.0
2014-Apr-10 05:31N 51°53' E 004°17'0 0.0
2014-Apr-10 04:31N 51°53' E 004°17'0 0.0
2014-Apr-10 03:28N 51°53' E 004°17'0 0.0
2014-Apr-10 02:31N 51°53' E 004°17'0 0.0
2014-Apr-10 01:31N 51°53' E 004°17'0 0.0
2014-Apr-10 00:31N 51°53' E 004°17'0 0.0
2014-Apr-09 23:28N 51°53' E 004°17'0 0.0
2014-Apr-09 22:06N 51°53' E 004°17'0 0.0
2014-Apr-09 21:15N 51°53' E 004°17'1 0.9
2014-Apr-09 20:33N 51°53' E 004°18'4 4.0
2014-Apr-09 19:33N 51°56' E 004°13'9 8.6
2014-Apr-09 18:33N 51°60' E 004°01'9 8.9
2014-Apr-09 17:33N 51°59' E 003°47'7 7.0
2014-Apr-09 16:34N 51°57' E 003°36'6 6.0
2014-Apr-09 15:34N 51°54' E 003°27'0 0.2
2014-Apr-09 14:33N 51°54' E 003°28'0 0.1
2014-Apr-09 13:32N 51°54' E 003°28'0 0.1
2014-Apr-09 12:29N 51°54' E 003°28'0 0.0
2014-Apr-09 11:11N 51°54' E 003°28'0 0.0
2014-Apr-09 10:32N 51°54' E 003°28'0 0.0
2014-Apr-09 07:33N 51°54' E 003°28'0 0.0
2014-Apr-09 06:33N 51°54' E 003°28'0 0.1
2014-Apr-09 05:29N 51°54' E 003°28'0 0.0
2014-Apr-09 03:10N 51°54' E 003°27'0 0.1
2014-Apr-09 02:31N 51°54' E 003°27'0 0.1
2014-Apr-09 01:22N 51°54' E 003°28'0 0.1
2014-Apr-09 00:33N 51°54' E 003°28'0 0.1
2014-Apr-08 23:33N 51°54' E 003°28'0 0.0
2014-Apr-08 22:30N 51°54' E 003°28'0 0.0
2014-Apr-08 21:33N 51°54' E 003°28'0 0.0
2014-Apr-08 20:30N 51°54' E 003°28'0 0.0
2014-Apr-08 19:33N 51°54' E 003°28'0 0.1
2014-Apr-08 18:15N 51°54' E 003°28'0 0.0
2014-Apr-08 17:33N 51°54' E 003°28'0 0.1
2014-Apr-08 15:30N 51°54' E 003°28'0 0.0
2014-Apr-08 03:12N 51°54' E 003°27'0 0.0
2014-Apr-08 02:18N 51°54' E 003°27'0 0.1
2014-Apr-08 01:33N 51°54' E 003°28'0 0.0
2014-Apr-07 06:30N 51°54' E 003°28'0 0.0
2014-Apr-07 04:21N 51°54' E 003°28'0 0.1
2014-Apr-07 02:18N 51°54' E 003°27'0 0.0
2014-Apr-07 01:30N 51°54' E 003°27'0 0.1
2014-Apr-06 23:24N 51°54' E 003°27'0 0.1
2014-Apr-06 22:33N 51°54' E 003°27'0 0.0
2014-Apr-06 21:33N 51°54' E 003°27'0 0.0
2014-Apr-06 16:21N 51°54' E 003°28'0 0.1
2014-Apr-06 15:24N 51°54' E 003°28'30 3.9
2014-Apr-06 07:33N 51°46' E 002°40'1313.1
2014-Apr-06 06:33N 51°37' E 002°25'1313.3
2014-Apr-06 05:33N 51°26' E 002°12'1312.6
2014-Apr-06 04:33N 51°14' E 002°06'1414.2
2014-Apr-06 03:33N 51°07' E 001°47'1514.6
2014-Apr-06 02:33N 50°57' E 001°30'1513.7
2014-Apr-06 01:29N 50°43' E 001°22'1212.7
2014-Apr-06 00:31N 50°35' E 001°08'1512.9
2014-Apr-05 23:22N 50°27' E 000°48'1312.8
2014-Apr-05 22:19N 50°23' E 000°28'5610.9
2014-Apr-05 17:08N 50°09' W 000°58'6 9.9
2014-Apr-05 16:30N 50°07' W 001°07'  

Dump ship's entire track history

sailing weather and tide predictions

Eagle Boston — 9VHI — position and weather